Time;durP1;ratioP1;P1;durP2;ratioP2;P2;SDS_P1;SDS_P2;PMS_P1;PMS_P2;Temp;Humidity;BMP_temperature;BMP_pressure;BME280_temperature;BME280_humidity;BME280_pressure;Samples;Min_cycle;Max_cycle;Signal;HPM_P1;HPM_P2
2023/12/04 00:01:14;;;;;;;1.30;1.30;;;;;;;-7.64;90.03;98774.22;5002032;28;20045;-77
2023/12/04 00:03:40;;;;;;;1.30;1.30;;;;;;;-7.55;89.17;98768.28;5000146;28;20053;-77
2023/12/04 00:06:05;;;;;;;1.30;1.30;;;;;;;-7.40;90.20;98767.94;4999303;28;20065;-77
2023/12/04 00:08:32;;;;;;;1.30;1.30;;;;;;;-7.53;90.00;98763.22;4995810;28;20045;-77
2023/12/04 00:10:57;;;;;;;1.30;1.30;;;;;;;-7.49;89.48;98761.09;5001798;28;20033;-77
2023/12/04 00:13:23;;;;;;;1.40;1.40;;;;;;;-7.42;89.25;98756.53;4999984;28;20287;-77
2023/12/04 00:15:48;;;;;;;1.30;1.30;;;;;;;-7.49;88.49;98747.22;5000344;28;20041;-77
2023/12/04 00:18:14;;;;;;;1.30;1.30;;;;;;;-7.46;88.93;98736.28;5001500;28;20495;-77
2023/12/04 00:20:39;;;;;;;1.33;1.33;;;;;;;-7.38;89.23;98722.38;4999486;28;20038;-77
2023/12/04 00:23:05;;;;;;;1.30;1.30;;;;;;;-7.24;88.78;98724.63;5001936;28;20439;-77
2023/12/04 00:25:30;;;;;;;1.30;1.30;;;;;;;-7.10;88.34;98726.88;5001375;28;20041;-77
2023/12/04 00:27:56;;;;;;;1.40;1.40;;;;;;;-7.05;88.98;98725.63;5001558;28;20069;-77
2023/12/04 00:30:21;;;;;;;1.30;1.30;;;;;;;-6.86;89.05;98725.72;4998536;28;20080;-78
2023/12/04 00:32:49;;;;;;;1.30;1.30;;;;;;;-6.77;88.78;98721.41;5002117;28;20156;-78
2023/12/04 00:35:15;;;;;;;1.40;1.40;;;;;;;-6.94;88.11;98729.28;5001877;28;20046;-78
2023/12/04 00:37:40;;;;;;;1.30;1.30;;;;;;;-7.15;87.92;98724.59;5001214;28;20076;-78
2023/12/04 00:40:07;;;;;;;1.30;1.30;;;;;;;-7.36;87.71;98724.34;4981804;28;20034;-78
2023/12/04 00:42:32;;;;;;;1.20;1.20;;;;;;;-7.35;89.39;98717.50;4998953;28;20129;-79
2023/12/04 00:44:58;;;;;;;1.30;1.30;;;;;;;-7.61;90.33;98717.53;4999961;28;20133;-78
2023/12/04 00:47:23;;;;;;;1.30;1.30;;;;;;;-7.78;90.35;98721.97;4998875;28;20421;-78
2023/12/04 00:49:49;;;;;;;1.30;1.30;;;;;;;-7.76;90.28;98711.75;4999478;28;20111;-78
2023/12/04 00:52:17;;;;;;;1.30;1.30;;;;;;;-7.98;89.70;98718.16;5000979;28;20487;-78
2023/12/04 00:54:43;;;;;;;1.33;1.33;;;;;;;-7.79;90.17;98709.78;4993042;28;20034;-78
2023/12/04 00:57:08;;;;;;;1.30;1.30;;;;;;;-7.81;90.51;98693.19;5003253;28;20041;-78
2023/12/04 00:59:34;;;;;;;1.35;1.35;;;;;;;-7.65;90.65;98695.59;4998128;28;20043;-78
2023/12/04 01:02:00;;;;;;;1.20;1.20;;;;;;;-7.81;90.05;98693.19;4996783;28;20531;-78
2023/12/04 01:04:25;;;;;;;1.30;1.30;;;;;;;-7.75;89.79;98692.88;4999772;28;20792;-78
2023/12/04 01:06:52;;;;;;;1.20;1.20;;;;;;;-7.94;89.85;98694.41;4982209;28;20045;-78
2023/12/04 01:09:17;;;;;;;1.20;1.20;;;;;;;-7.98;89.47;98684.50;5002591;28;20039;-78
2023/12/04 01:11:45;;;;;;;1.20;1.20;;;;;;;-7.76;89.18;98698.78;4997117;28;20103;-78
2023/12/04 01:14:11;;;;;;;1.30;1.30;;;;;;;-7.42;88.92;98689.16;4994110;28;20050;-77
2023/12/04 01:16:36;;;;;;;1.20;1.20;;;;;;;-7.49;88.92;98687.63;4997377;28;20069;-78
2023/12/04 01:19:01;;;;;;;1.20;1.20;;;;;;;-7.56;89.74;98678.38;5001566;28;20454;-78
2023/12/04 01:21:27;;;;;;;1.30;1.30;;;;;;;-7.52;90.54;98664.97;5001545;28;20066;-77
2023/12/04 01:23:54;;;;;;;1.30;1.30;;;;;;;-7.59;90.77;98665.13;4999098;28;20146;-78
2023/12/04 01:26:20;;;;;;;1.25;1.25;;;;;;;-7.70;89.90;98670.03;4998805;28;20042;-78
2023/12/04 01:28:45;;;;;;;1.30;1.30;;;;;;;-7.75;89.43;98669.56;5000563;28;20030;-78
2023/12/04 01:31:11;;;;;;;1.30;1.30;;;;;;;-7.76;89.19;98670.31;4999182;28;20673;-78
2023/12/04 01:33:36;;;;;;;1.30;1.30;;;;;;;-7.75;89.33;98662.72;4997289;28;20037;-78
2023/12/04 01:36:02;;;;;;;1.20;1.20;;;;;;;-7.72;90.20;98659.50;5000759;28;20536;-78
2023/12/04 01:38:27;;;;;;;1.20;1.20;;;;;;;-7.74;89.92;98645.50;4998582;28;20499;-78
2023/12/04 01:40:53;;;;;;;1.20;1.20;;;;;;;-7.75;89.88;98661.81;5001618;28;20038;-77
2023/12/04 01:43:18;;;;;;;1.30;1.30;;;;;;;-7.83;90.00;98649.78;4998851;28;20046;-78
2023/12/04 01:45:44;;;;;;;1.30;1.30;;;;;;;-7.88;89.47;98649.31;5001948;28;20427;-78
2023/12/04 01:48:13;;;;;;;1.30;1.30;;;;;;;-7.79;90.18;98644.13;4997206;28;20408;-78
2023/12/04 01:50:39;;;;;;;1.40;1.40;;;;;;;-7.81;89.51;98640.47;5000771;28;20038;-78
2023/12/04 01:53:04;;;;;;;1.30;1.30;;;;;;;-7.64;89.51;98640.44;4997753;28;20044;-78
2023/12/04 01:55:31;;;;;;;1.30;1.30;;;;;;;-7.57;89.88;98636.75;4996092;28;20034;-78
2023/12/04 01:57:58;;;;;;;1.30;1.30;;;;;;;-7.62;89.26;98628.53;5013879;28;20400;-78
2023/12/04 02:00:25;;;;;;;1.30;1.30;;;;;;;-7.41;89.35;98626.22;5000711;28;20038;-77
2023/12/04 02:02:52;;;;;;;1.30;1.30;;;;;;;-7.52;88.89;98631.28;5000930;28;20042;-79
2023/12/04 02:05:19;;;;;;;1.30;1.30;;;;;;;-7.50;89.30;98640.09;4994692;28;20049;-77
2023/12/04 02:07:44;;;;;;;1.38;1.38;;;;;;;-7.50;89.28;98629.75;4998051;28;20049;-77
2023/12/04 02:10:13;;;;;;;1.30;1.30;;;;;;;-7.51;88.93;98633.09;4998555;28;20038;-77
2023/12/04 02:12:38;;;;;;;1.30;1.30;;;;;;;-7.61;88.25;98632.97;5003366;28;20062;-76
2023/12/04 02:15:04;;;;;;;1.30;1.30;;;;;;;-7.54;89.30;98637.06;5004056;28;20546;-78
2023/12/04 02:17:31;;;;;;;1.30;1.30;;;;;;;-7.63;89.25;98636.16;5005709;28;20034;-78
2023/12/04 02:19:57;;;;;;;1.40;1.40;;;;;;;-7.51;89.84;98630.50;5003557;28;20088;-79
2023/12/04 02:22:22;;;;;;;1.20;1.20;;;;;;;-7.63;89.92;98631.00;5005433;28;20038;-78
2023/12/04 02:24:48;;;;;;;1.40;1.40;;;;;;;-7.72;89.48;98619.75;5003241;28;20033;-76
2023/12/04 02:27:22;;;;;;;1.30;1.30;;;;;;;-7.87;88.76;98621.75;5002695;28;20033;-78
2023/12/04 02:29:54;;;;;;;1.30;1.30;;;;;;;-7.90;89.20;98624.06;5003621;28;20050;-78
2023/12/04 02:32:22;;;;;;;1.30;1.30;;;;;;;-7.96;89.95;98619.16;5001147;28;20034;-77
2023/12/04 02:34:49;;;;;;;1.33;1.33;;;;;;;-7.93;89.93;98623.75;5000969;28;20048;-77
2023/12/04 02:37:17;;;;;;;1.30;1.30;;;;;;;-7.86;89.60;98614.13;5003644;28;20048;-77
2023/12/04 02:39:43;;;;;;;1.27;1.27;;;;;;;-7.73;89.62;98608.47;5004394;28;20053;-75
2023/12/04 02:42:08;;;;;;;1.30;1.30;;;;;;;-7.68;90.04;98599.47;4999784;28;20437;-76
2023/12/04 02:44:43;;;;;;;1.40;1.40;;;;;;;-7.63;89.26;98590.47;5004395;28;20042;-76
2023/12/04 02:47:08;;;;;;;1.30;1.30;;;;;;;-7.68;89.75;98576.16;5004118;28;20047;-76
2023/12/04 02:49:33;;;;;;;1.35;1.35;;;;;;;-7.68;89.46;98588.19;5006549;28;20042;-77
2023/12/04 02:51:59;;;;;;;1.30;1.30;;;;;;;-7.43;88.65;98582.00;4998617;28;20045;-77
2023/12/04 02:54:24;;;;;;;1.35;1.35;;;;;;;-7.36;88.42;98583.50;5001848;28;20758;-77
2023/12/04 02:56:50;;;;;;;1.30;1.30;;;;;;;-7.34;88.76;98585.47;5004866;28;20125;-77
2023/12/04 02:59:15;;;;;;;1.30;1.30;;;;;;;-7.39;88.22;98589.31;5000131;28;20037;-77
2023/12/04 03:01:41;;;;;;;1.30;1.30;;;;;;;-7.32;88.53;98591.72;5001497;28;20038;-77
2023/12/04 03:04:06;;;;;;;1.30;1.30;;;;;;;-7.33;88.14;98587.31;5000682;28;20052;-77
2023/12/04 03:06:32;;;;;;;1.33;1.33;;;;;;;-7.13;88.39;98575.34;5004459;28;20091;-76
2023/12/04 03:08:59;;;;;;;1.40;1.40;;;;;;;-7.35;88.31;98577.56;4999275;28;20041;-77
2023/12/04 03:11:25;;;;;;;1.30;1.30;;;;;;;-7.35;88.78;98565.50;4998189;28;20054;-77
2023/12/04 03:13:53;;;;;;;1.30;1.30;;;;;;;-7.37;89.02;98555.78;4999826;28;20030;-77
2023/12/04 03:16:19;;;;;;;1.30;1.30;;;;;;;-7.50;88.62;98556.28;5005412;28;20057;-77
2023/12/04 03:18:44;;;;;;;1.30;1.30;;;;;;;-7.50;88.72;98548.53;4998064;28;20054;-76
2023/12/04 03:21:10;;;;;;;1.27;1.27;;;;;;;-7.45;88.58;98546.38;4999102;28;20111;-77
2023/12/04 03:23:36;;;;;;;1.30;1.30;;;;;;;-7.31;89.38;98538.22;5001348;28;20647;-77
2023/12/04 03:26:02;;;;;;;1.30;1.30;;;;;;;-7.43;89.80;98526.69;4999859;28;20877;-77
2023/12/04 03:28:28;;;;;;;1.40;1.40;;;;;;;-7.47;89.13;98522.91;5002993;28;20542;-77
2023/12/04 03:30:53;;;;;;;1.30;1.30;;;;;;;-7.49;88.31;98527.94;5004596;28;20895;-77
2023/12/04 03:33:19;;;;;;;1.30;1.30;;;;;;;-7.42;88.57;98513.00;5001496;28;20407;-77
2023/12/04 03:35:44;;;;;;;1.20;1.20;;;;;;;-7.42;88.54;98513.00;4999038;28;20107;-77
2023/12/04 03:38:09;;;;;;;1.30;1.30;;;;;;;-7.40;88.14;98503.66;4999522;28;20635;-77
2023/12/04 03:40:35;;;;;;;1.30;1.30;;;;;;;-6.95;88.36;98501.84;5002085;28;20495;-77
2023/12/04 03:43:00;;;;;;;1.23;1.23;;;;;;;-6.87;87.93;98497.38;4995887;28;20042;-77
2023/12/04 03:45:28;;;;;;;1.23;1.23;;;;;;;-6.47;86.76;98501.91;5000248;28;20044;-77
2023/12/04 03:47:54;;;;;;;1.30;1.30;;;;;;;-4.93;79.35;98480.75;5001494;28;20037;-77
2023/12/04 03:50:19;;;;;;;1.30;1.30;;;;;;;-5.50;82.43;98474.97;4999497;28;20034;-77
2023/12/04 03:52:45;;;;;;;1.30;1.30;;;;;;;-5.08;80.28;98464.72;5001253;28;20507;-77
2023/12/04 03:55:10;;;;;;;1.30;1.30;;;;;;;-4.69;77.89;98455.84;5001911;28;20037;-77
2023/12/04 03:57:36;;;;;;;1.30;1.30;;;;;;;-4.95;79.82;98458.88;4999962;28;20092;-76
2023/12/04 04:00:01;;;;;;;1.20;1.20;;;;;;;-4.82;80.17;98445.22;5003389;28;20888;-77
2023/12/04 04:02:39;;;;;;;1.30;1.30;;;;;;;-5.24;82.19;98444.31;5003246;28;20049;-76
2023/12/04 04:05:04;;;;;;;1.30;1.30;;;;;;;-5.30;82.66;98445.50;5001689;28;20037;-76
2023/12/04 04:07:30;;;;;;;1.30;1.30;;;;;;;-5.40;83.42;98450.69;4996216;28;20042;-76
2023/12/04 04:09:55;;;;;;;1.30;1.30;;;;;;;-5.51;83.42;98442.88;5000336;28;20026;-76
2023/12/04 04:12:21;;;;;;;1.30;1.30;;;;;;;-5.58;83.98;98442.22;4999057;28;20147;-79
2023/12/04 04:14:46;;;;;;;1.30;1.30;;;;;;;-5.67;84.34;98442.31;5001398;28;20049;-77
2023/12/04 04:17:12;;;;;;;1.30;1.30;;;;;;;-5.87;85.06;98442.28;5015071;28;20062;-79
2023/12/04 04:19:37;;;;;;;1.20;1.20;;;;;;;-5.99;85.40;98444.75;4999784;28;20038;-77
2023/12/04 04:22:03;;;;;;;1.30;1.30;;;;;;;-6.04;85.61;98443.44;4998445;28;20472;-76
2023/12/04 04:24:28;;;;;;;1.30;1.30;;;;;;;-6.13;86.26;98438.38;4997251;28;20519;-78
2023/12/04 04:26:54;;;;;;;1.25;1.25;;;;;;;-6.09;86.02;98445.63;4998862;28;20503;-76
2023/12/04 04:29:19;;;;;;;1.30;1.30;;;;;;;-6.10;85.96;98453.28;5004975;28;20037;-76
2023/12/04 04:31:44;;;;;;;1.30;1.30;;;;;;;-6.15;86.11;98454.56;5000830;28;20050;-77
2023/12/04 04:34:10;;;;;;;1.30;1.30;;;;;;;-6.31;86.43;98465.28;4997022;28;20109;-77
2023/12/04 04:36:35;;;;;;;1.30;1.30;;;;;;;-6.26;86.50;98464.00;5002476;28;20042;-77
2023/12/04 04:39:01;;;;;;;1.30;1.30;;;;;;;-6.33;86.29;98472.00;5000265;28;20758;-77
2023/12/04 04:41:27;;;;;;;1.20;1.20;;;;;;;-6.37;86.75;98473.44;4997340;28;20033;-77
2023/12/04 04:43:53;;;;;;;1.30;1.30;;;;;;;-6.39;87.60;98469.78;4999464;28;20062;-77
2023/12/04 04:46:19;;;;;;;1.30;1.30;;;;;;;-6.47;87.40;98468.16;5002394;28;20122;-77
2023/12/04 04:48:44;;;;;;;1.30;1.30;;;;;;;-6.63;87.47;98464.97;4999321;28;20121;-79
2023/12/04 04:51:09;;;;;;;1.30;1.30;;;;;;;-6.74;87.28;98476.97;4998079;28;20129;-77
2023/12/04 04:53:38;;;;;;;1.30;1.30;;;;;;;-6.51;88.17;98464.41;5000631;28;20393;-77
2023/12/04 04:56:04;;;;;;;1.30;1.30;;;;;;;-6.60;87.97;98473.94;5001249;28;20042;-77
2023/12/04 04:58:29;;;;;;;1.30;1.30;;;;;;;-6.74;88.24;98472.69;4999634;28;20080;-76
2023/12/04 05:00:55;;;;;;;1.23;1.23;;;;;;;-6.59;89.17;98467.06;5000372;28;20037;-76
2023/12/04 05:03:23;;;;;;;1.30;1.30;;;;;;;-6.60;88.66;98468.75;5001021;28;20476;-76
2023/12/04 05:05:48;;;;;;;1.30;1.30;;;;;;;-6.50;88.23;98471.41;4978493;28;20092;-77
2023/12/04 05:08:14;;;;;;;1.30;1.30;;;;;;;-6.55;87.76;98477.88;5000822;28;20038;-77
2023/12/04 05:10:39;;;;;;;1.30;1.30;;;;;;;-6.70;88.14;98467.81;5000700;28;20046;-76
2023/12/04 05:13:05;;;;;;;1.30;1.30;;;;;;;-6.58;88.43;98472.41;4996052;28;20033;-76
2023/12/04 05:15:30;;;;;;;1.30;1.30;;;;;;;-6.37;88.36;98464.72;5001032;28;20807;-77
2023/12/04 05:17:56;;;;;;;1.30;1.30;;;;;;;-6.47;87.74;98460.38;5003475;28;20260;-76
2023/12/04 05:20:21;;;;;;;1.25;1.25;;;;;;;-6.65;88.38;98464.84;5000855;28;20044;-76
2023/12/04 05:22:48;;;;;;;1.30;1.30;;;;;;;-6.64;88.39;98458.88;4999178;28;20037;-76
2023/12/04 05:25:14;;;;;;;1.38;1.38;;;;;;;-6.86;88.27;98448.22;5000015;28;20542;-76
2023/12/04 05:27:39;;;;;;;1.30;1.30;;;;;;;-6.80;88.37;98442.72;5000196;28;20113;-76
2023/12/04 05:30:05;;;;;;;1.30;1.30;;;;;;;-6.52;88.44;98444.41;4998143;28;20037;-76
2023/12/04 05:32:31;;;;;;;1.30;1.30;;;;;;;-6.38;88.12;98443.03;5000726;28;20041;-79
2023/12/04 05:34:56;;;;;;;1.30;1.30;;;;;;;-6.31;88.20;98436.72;5000164;28;20046;-76
2023/12/04 05:37:22;;;;;;;1.30;1.30;;;;;;;-6.43;88.26;98435.63;4998976;28;20080;-76
2023/12/04 05:39:52;;;;;;;1.30;1.30;;;;;;;-6.56;88.29;98429.34;4998092;28;20483;-76
2023/12/04 05:42:17;;;;;;;1.30;1.30;;;;;;;-6.63;88.96;98429.56;5000740;28;20161;-76
2023/12/04 05:44:43;;;;;;;1.30;1.30;;;;;;;-6.73;88.11;98422.63;4996651;28;20125;-79
2023/12/04 05:47:11;;;;;;;1.30;1.30;;;;;;;-6.67;88.92;98424.88;4979665;28;20046;-79
2023/12/04 05:49:36;;;;;;;1.30;1.30;;;;;;;-6.60;88.39;98419.47;4999926;28;20034;-79
2023/12/04 05:52:03;;;;;;;1.30;1.30;;;;;;;-6.61;88.60;98404.69;4998877;28;20053;-77
2023/12/04 05:54:28;;;;;;;1.40;1.40;;;;;;;-6.48;88.09;98401.47;5000278;28;20217;-77
2023/12/04 05:56:57;;;;;;;1.30;1.30;;;;;;;-6.51;87.78;98399.53;4998770;28;20117;-77
2023/12/04 05:59:22;;;;;;;1.30;1.30;;;;;;;-6.76;88.07;98406.78;5015246;28;20422;-76
2023/12/04 06:02:09;;;;;;;;;;;;;;;;;;;;;
2023/12/04 06:04:37;;;;;;;1.30;1.30;;;;;;;-7.00;88.33;98389.94;4994868;28;20052;-77
2023/12/04 06:07:08;;;;;;;1.30;1.30;;;;;;;-6.85;88.93;98386.91;4999748;28;20399;-77
2023/12/04 06:09:47;;;;;;;1.30;1.30;;;;;;;-6.68;88.54;98385.84;4995223;28;20042;-77
2023/12/04 06:12:16;;;;;;;1.20;1.20;;;;;;;-6.87;88.63;98391.03;4998277;28;20046;-77
2023/12/04 06:14:54;;;;;;;1.35;1.35;;;;;;;-6.74;88.75;98387.09;4999716;28;20180;-77
2023/12/04 06:17:31;;;;;;;1.40;1.40;;;;;;;-6.78;88.78;98386.69;5000064;28;20042;-79
2023/12/04 06:19:57;;;;;;;1.30;1.30;;;;;;;-6.77;88.83;98386.81;4996109;28;20146;-79
2023/12/04 06:22:23;;;;;;;1.40;1.40;;;;;;;-6.68;89.13;98391.00;4997058;28;20076;-77
2023/12/04 06:24:49;;;;;;;1.30;1.30;;;;;;;-6.86;88.63;98387.69;4994780;28;20125;-79
2023/12/04 06:27:20;;;;;;;1.30;1.30;;;;;;;-6.82;89.04;98388.09;4999973;28;20070;-79
2023/12/04 06:29:46;;;;;;;1.30;1.30;;;;;;;-6.80;88.93;98396.94;4996203;28;20038;-78
2023/12/04 06:32:12;;;;;;;1.35;1.35;;;;;;;-6.74;88.54;98393.97;4998886;28;20058;-78
2023/12/04 06:34:38;;;;;;;1.25;1.25;;;;;;;-6.75;88.46;98386.97;4996712;28;20054;-78
2023/12/04 06:37:08;;;;;;;1.30;1.30;;;;;;;-6.70;88.76;98396.09;4997740;28;20095;-78
2023/12/04 06:39:36;;;;;;;1.30;1.30;;;;;;;-6.60;88.20;98405.59;4999499;28;20057;-78
2023/12/04 06:42:03;;;;;;;1.30;1.30;;;;;;;-6.63;88.52;98390.66;5001341;28;20096;-78
2023/12/04 06:44:29;;;;;;;1.30;1.30;;;;;;;-6.62;88.21;98395.06;5001870;28;20053;-78
2023/12/04 06:46:59;;;;;;;1.30;1.30;;;;;;;-6.42;88.65;98389.03;4999967;28;20038;-77
2023/12/04 06:49:29;;;;;;;1.30;1.30;;;;;;;-6.50;88.47;98384.88;5002021;28;20129;-78
2023/12/04 06:51:55;;;;;;;1.30;1.30;;;;;;;-6.46;88.46;98385.28;5020001;28;20081;-78
2023/12/04 06:54:23;;;;;;;1.30;1.30;;;;;;;-6.27;88.50;98386.91;5005404;28;20034;-78
2023/12/04 06:56:49;;;;;;;1.30;1.30;;;;;;;-6.28;88.02;98391.16;5003989;28;20030;-78
2023/12/04 06:59:14;;;;;;;1.30;1.30;;;;;;;-6.24;87.50;98394.94;5003419;28;20049;-79
2023/12/04 07:01:39;;;;;;;1.30;1.30;;;;;;;-6.24;87.62;98401.03;5003483;28;20045;-80
2023/12/04 07:04:09;;;;;;;1.23;1.23;;;;;;;-6.29;87.67;98391.03;5009437;28;20029;-78
2023/12/04 07:06:39;;;;;;;1.30;1.30;;;;;;;-6.15;88.19;98387.97;5008990;28;20045;-79
2023/12/04 07:09:07;;;;;;;1.27;1.27;;;;;;;-6.10;87.98;98389.28;5008696;28;20037;-77
2023/12/04 07:11:33;;;;;;;1.30;1.30;;;;;;;-6.07;87.51;98381.78;5005596;28;20052;-78
2023/12/04 07:13:58;;;;;;;1.30;1.30;;;;;;;-6.10;87.38;98373.69;5008978;28;20132;-78
2023/12/04 07:16:24;;;;;;;1.20;1.20;;;;;;;-6.02;87.19;98375.28;5005332;28;20484;-78
2023/12/04 07:18:50;;;;;;;1.20;1.20;;;;;;;-5.99;86.70;98372.03;5008157;28;20046;-78
2023/12/04 07:21:20;;;;;;;1.30;1.30;;;;;;;-5.97;87.42;98376.59;5007679;28;20042;-78
2023/12/04 07:23:46;;;;;;;1.20;1.20;;;;;;;-5.86;87.02;98376.56;5008624;28;20041;-78
2023/12/04 07:26:12;;;;;;;1.20;1.20;;;;;;;-5.82;86.90;98378.66;5008383;28;20042;-78
2023/12/04 07:28:37;;;;;;;1.20;1.20;;;;;;;-5.75;87.02;98375.78;5004774;28;20038;-79
2023/12/04 07:31:03;;;;;;;1.30;1.30;;;;;;;-5.57;86.90;98369.56;5002035;28;20061;-79
2023/12/04 07:33:29;;;;;;;1.30;1.30;;;;;;;-5.57;87.39;98361.78;5004705;28;20037;-79
2023/12/04 07:35:54;;;;;;;1.30;1.30;;;;;;;-5.50;86.28;98360.63;5007019;28;20523;-79
2023/12/04 07:38:20;;;;;;;1.20;1.20;;;;;;;-5.43;86.55;98349.94;4987744;28;20413;-79
2023/12/04 07:40:46;;;;;;;1.27;1.27;;;;;;;-5.32;86.37;98349.16;5008333;28;20050;-79
2023/12/04 07:43:14;;;;;;;1.30;1.30;;;;;;;-5.16;86.62;98336.66;5007185;28;20050;-78
2023/12/04 07:45:39;;;;;;;1.20;1.20;;;;;;;-4.98;85.61;98336.38;5004248;28;20084;-77
2023/12/04 07:48:06;;;;;;;1.23;1.23;;;;;;;-4.89;85.84;98326.69;5006156;28;20046;-79
2023/12/04 07:50:31;;;;;;;1.30;1.30;;;;;;;-4.86;85.94;98331.25;5000308;28;20028;-79
2023/12/04 07:53:00;;;;;;;1.20;1.20;;;;;;;-4.74;86.12;98319.25;5002282;28;20038;-79
2023/12/04 07:55:28;;;;;;;1.20;1.20;;;;;;;-4.54;86.22;98308.75;5006847;28;20049;-78
2023/12/04 07:57:59;;;;;;;1.20;1.20;;;;;;;-4.43;85.64;98310.50;5007666;28;20062;-78
2023/12/04 08:00:28;;;;;;;1.20;1.20;;;;;;;-4.37;84.12;98299.66;4998547;28;20546;-78
2023/12/04 08:03:04;;;;;;;1.20;1.20;;;;;;;-4.27;85.60;98309.09;4999962;28;20069;-78
2023/12/04 08:05:35;;;;;;;1.20;1.20;;;;;;;-4.04;85.01;98316.13;5002893;28;20088;-81
2023/12/04 08:08:01;;;;;;;1.20;1.20;;;;;;;-3.97;84.56;98314.16;5018832;28;20049;-78
2023/12/04 08:10:26;;;;;;;1.20;1.20;;;;;;;-3.85;85.48;98308.97;5002177;28;20038;-78
2023/12/04 08:12:52;;;;;;;1.30;1.30;;;;;;;-3.83;83.75;98306.47;5005020;28;20054;-80
2023/12/04 08:15:17;;;;;;;1.20;1.20;;;;;;;-3.61;84.76;98302.13;5001055;28;20091;-78
2023/12/04 08:17:43;;;;;;;1.20;1.20;;;;;;;-3.48;83.58;98293.56;5000024;28;20065;-78
2023/12/04 08:20:13;;;;;;;1.20;1.20;;;;;;;-3.34;81.57;98292.91;5001910;28;20124;-79
2023/12/04 08:22:44;;;;;;;1.20;1.20;;;;;;;-3.08;76.96;98283.50;5003512;28;20068;-79
2023/12/04 08:25:10;;;;;;;1.20;1.20;;;;;;;-2.81;73.84;98267.25;5004803;28;20163;-79
2023/12/04 08:27:35;;;;;;;1.20;1.20;;;;;;;-2.68;76.84;98267.38;5004118;28;20132;-79
2023/12/04 08:30:02;;;;;;;1.05;1.05;;;;;;;-2.55;77.87;98255.19;5004227;28;20045;-78
2023/12/04 08:32:28;;;;;;;1.20;1.20;;;;;;;-2.44;79.40;98257.78;5002819;28;20072;-79
2023/12/04 08:34:54;;;;;;;1.10;1.10;;;;;;;-2.46;78.39;98240.16;5005499;28;20033;-79
2023/12/04 08:37:20;;;;;;;1.20;1.20;;;;;;;-2.40;73.76;98243.19;5004995;28;20527;-78
2023/12/04 08:39:45;;;;;;;1.13;1.13;;;;;;;-2.20;79.42;98237.72;5004768;28;20042;-78
2023/12/04 08:42:11;;;;;;;1.10;1.10;;;;;;;-2.21;77.21;98235.88;5004907;28;20092;-79
2023/12/04 08:44:37;;;;;;;1.20;1.20;;;;;;;-2.28;76.62;98248.41;5003318;28;20048;-78
2023/12/04 08:47:03;;;;;;;1.10;1.10;;;;;;;-2.30;79.88;98255.22;5004050;28;20055;-79
2023/12/04 08:49:28;;;;;;;1.20;1.20;;;;;;;-2.00;79.49;98252.16;5003835;28;20040;-78
2023/12/04 08:51:54;;;;;;;1.20;1.20;;;;;;;-1.90;76.61;98248.47;5003113;28;20065;-79
2023/12/04 08:54:19;;;;;;;1.10;1.10;;;;;;;-1.73;77.23;98247.00;5002106;28;20491;-78
2023/12/04 08:56:44;;;;;;;1.10;1.10;;;;;;;-1.84;77.80;98243.66;4982983;28;20515;-78
2023/12/04 08:59:10;;;;;;;1.20;1.20;;;;;;;-1.90;79.39;98243.25;5004572;28;20033;-78
2023/12/04 09:01:36;;;;;;;1.17;1.17;;;;;;;-1.88;76.66;98241.63;5003272;28;20069;-78
2023/12/04 09:04:01;;;;;;;1.10;1.10;;;;;;;-1.90;76.87;98241.53;5002866;28;20050;-78
2023/12/04 09:06:27;;;;;;;1.20;1.20;;;;;;;-1.55;78.30;98235.19;5003778;28;20585;-78
2023/12/04 09:08:52;;;;;;;1.10;1.10;;;;;;;-1.52;78.40;98242.34;5002756;28;20038;-78
2023/12/04 09:11:18;;;;;;;1.15;1.15;;;;;;;-1.51;76.62;98254.63;5001459;28;20040;-78
2023/12/04 09:13:43;;;;;;;1.20;1.20;;;;;;;-1.40;77.74;98241.44;5002604;28;20048;-78
2023/12/04 09:16:09;;;;;;;1.10;1.10;;;;;;;-1.30;76.37;98251.72;5002406;28;20115;-78
2023/12/04 09:18:34;;;;;;;1.10;1.10;;;;;;;-1.32;78.22;98253.34;5003749;28;20125;-79
2023/12/04 09:21:00;;;;;;;1.10;1.10;;;;;;;-1.30;75.96;98246.50;5002899;28;20030;-78
2023/12/04 09:23:25;;;;;;;1.10;1.10;;;;;;;-1.42;76.73;98252.63;5002817;28;20103;-79
2023/12/04 09:25:51;;;;;;;1.10;1.10;;;;;;;-1.44;76.23;98252.50;5003238;28;20034;-79
2023/12/04 09:28:16;;;;;;;1.10;1.10;;;;;;;-1.28;76.69;98257.09;5003946;28;20045;-79
2023/12/04 09:30:42;;;;;;;1.20;1.20;;;;;;;-1.31;76.84;98259.47;4999132;28;20052;-79
2023/12/04 09:33:07;;;;;;;1.10;1.10;;;;;;;-1.33;75.04;98243.69;5002589;28;20489;-78
2023/12/04 09:35:34;;;;;;;1.10;1.10;;;;;;;-1.48;75.71;98245.28;5002959;28;20069;-78
2023/12/04 09:37:59;;;;;;;1.10;1.10;;;;;;;-1.37;76.91;98262.59;5002707;28;20065;-78
2023/12/04 09:40:25;;;;;;;1.10;1.10;;;;;;;-1.57;75.71;98268.19;5006629;28;20092;-78
2023/12/04 09:42:51;;;;;;;1.10;1.10;;;;;;;-1.44;77.09;98264.69;5005267;28;20049;-78
2023/12/04 09:45:18;;;;;;;1.20;1.20;;;;;;;-1.28;76.49;98270.16;5003628;28;20033;-78
2023/12/04 09:47:45;;;;;;;1.20;1.20;;;;;;;-1.32;75.11;98273.38;4996003;28;20046;-78
2023/12/04 09:50:12;;;;;;;1.20;1.20;;;;;;;-1.38;77.32;98272.97;5001080;28;20606;-78
2023/12/04 09:52:41;;;;;;;1.20;1.20;;;;;;;-1.19;77.04;98262.94;5001043;28;20050;-78
2023/12/04 09:55:06;;;;;;;1.15;1.15;;;;;;;-1.23;76.32;98244.31;5000242;28;20084;-78
2023/12/04 09:57:32;;;;;;;1.10;1.10;;;;;;;-1.19;76.33;98228.00;5001326;28;20096;-79
2023/12/04 10:00:00;;;;;;;1.20;1.20;;;;;;;-1.21;73.00;98227.88;4999156;28;20029;-78
2023/12/04 10:02:26;;;;;;;1.05;1.05;;;;;;;-0.92;75.59;98232.41;5000671;28;20496;-78
2023/12/04 10:04:51;;;;;;;1.20;1.20;;;;;;;-0.87;74.37;98227.47;5000955;28;20113;-78
2023/12/04 10:07:17;;;;;;;1.10;1.10;;;;;;;-0.80;75.82;98230.59;5001749;28;20038;-79
2023/12/04 10:09:43;;;;;;;1.20;1.20;;;;;;;-0.89;73.57;98223.88;4991388;28;20637;-78
2023/12/04 10:12:09;;;;;;;1.10;1.10;;;;;;;-0.93;74.67;98222.75;4999574;28;20034;-78
2023/12/04 10:14:35;;;;;;;1.10;1.10;;;;;;;-0.74;73.56;98223.94;4999113;28;20046;-78
2023/12/04 10:17:14;;;;;;;1.10;1.10;;;;;;;-0.93;73.71;98221.84;4982316;28;20037;-78
2023/12/04 10:19:40;;;;;;;1.00;1.00;;;;;;;-0.91;74.69;98231.63;5001800;28;20046;-78
2023/12/04 10:22:10;;;;;;;1.10;1.10;;;;;;;-0.88;73.46;98223.06;5000780;28;20526;-77
2023/12/04 10:24:39;;;;;;;1.10;1.10;;;;;;;-0.84;74.03;98227.69;5000706;28;20390;-77
2023/12/04 10:27:13;;;;;;;1.10;1.10;;;;;;;-0.72;72.59;98225.84;4999906;28;20107;-78
2023/12/04 10:29:50;;;;;;;1.13;1.13;;;;;;;-0.55;74.95;98219.97;4998884;28;20392;-78
2023/12/04 10:32:22;;;;;;;1.10;1.10;;;;;;;-0.41;71.98;98209.47;5001571;28;20672;-78
2023/12/04 10:34:48;;;;;;;1.10;1.10;;;;;;;-0.08;72.26;98221.16;5004774;28;20192;-78
2023/12/04 10:37:14;;;;;;;1.05;1.05;;;;;;;0.04;71.53;98213.13;5004299;28;20494;-78
2023/12/04 10:39:47;;;;;;;1.10;1.10;;;;;;;0.19;72.40;98201.88;5005140;28;20602;-78
2023/12/04 10:42:23;;;;;;;1.02;1.02;;;;;;;0.06;71.86;98201.94;5005725;28;20434;-79
2023/12/04 10:44:48;;;;;;;1.10;1.10;;;;;;;-0.10;72.50;98189.59;5002504;28;20038;-78
2023/12/04 10:47:15;;;;;;;1.00;1.00;;;;;;;-1.18;70.63;98211.50;5003328;28;20080;-78
2023/12/04 10:49:42;;;;;;;1.10;1.10;;;;;;;-0.71;71.47;98204.09;5004726;28;20038;-78
2023/12/04 10:52:09;;;;;;;1.10;1.10;;;;;;;-0.40;72.06;98183.34;4996242;28;20211;-78
2023/12/04 10:54:34;;;;;;;1.10;1.10;;;;;;;-0.19;70.92;98195.97;4997935;28;20046;-78
2023/12/04 10:57:03;;;;;;;1.00;1.00;;;;;;;-0.07;67.54;98194.13;5003324;28;20037;-78
2023/12/04 10:59:35;;;;;;;1.10;1.10;;;;;;;-0.36;70.18;98198.47;5002083;28;20090;-78
2023/12/04 11:02:05;;;;;;;1.00;1.00;;;;;;;-0.44;68.69;98191.84;5002764;28;20046;-78
2023/12/04 11:04:33;;;;;;;1.10;1.10;;;;;;;-0.18;71.85;98192.56;5005861;28;20121;-78
2023/12/04 11:07:01;;;;;;;1.10;1.10;;;;;;;0.13;69.72;98188.38;5002470;28;20172;-78
2023/12/04 11:09:28;;;;;;;1.10;1.10;;;;;;;0.28;69.87;98187.50;5005319;28;20463;-78
2023/12/04 11:11:59;;;;;;;1.00;1.00;;;;;;;0.48;68.48;98186.97;5002180;28;20042;-78
2023/12/04 11:14:31;;;;;;;1.10;1.10;;;;;;;0.56;68.44;98177.81;5003979;28;20037;-76
2023/12/04 11:17:03;;;;;;;1.08;1.08;;;;;;;0.60;68.64;98184.16;5004743;28;20038;-77
2023/12/04 11:19:36;;;;;;;1.10;1.10;;;;;;;0.47;67.92;98178.19;5003916;28;20042;-78
2023/12/04 11:22:03;;;;;;;1.05;1.05;;;;;;;-0.27;67.41;98167.59;5002674;28;20077;-78
2023/12/04 11:24:28;;;;;;;1.10;1.10;;;;;;;-0.38;69.80;98158.19;5008964;28;20045;-76
2023/12/04 11:26:55;;;;;;;0.93;0.93;;;;;;;-0.69;69.28;98154.44;5002221;28;20439;-78
2023/12/04 11:29:22;;;;;;;1.00;1.00;;;;;;;-0.37;69.55;98136.38;5003355;28;20074;-78
2023/12/04 11:31:47;;;;;;;1.20;1.20;;;;;;;0.03;70.89;98122.16;4984907;28;20457;-78